sensor_id;sensor_type;location;lat;lon;timestamp;P1;durP1;ratioP1;P2;durP2;ratioP2
10902;SDS011;5504;47.312;11.060;2022-12-18T00:01:45;21.23;;;13.47;;
10902;SDS011;5504;47.312;11.060;2022-12-18T00:04:29;20.97;;;13.63;;
10902;SDS011;5504;47.312;11.060;2022-12-18T00:06:55;21.77;;;13.37;;
10902;SDS011;5504;47.312;11.060;2022-12-18T00:09:21;19.63;;;12.83;;
10902;SDS011;5504;47.312;11.060;2022-12-18T00:11:47;22.03;;;13.77;;
10902;SDS011;5504;47.312;11.060;2022-12-18T00:14:13;20.13;;;12.97;;
10902;SDS011;5504;47.312;11.060;2022-12-18T00:16:39;21.27;;;12.97;;
10902;SDS011;5504;47.312;11.060;2022-12-18T00:19:08;19.27;;;12.60;;
10902;SDS011;5504;47.312;11.060;2022-12-18T00:21:35;20.47;;;13.13;;
10902;SDS011;5504;47.312;11.060;2022-12-18T00:24:01;19.00;;;12.80;;
10902;SDS011;5504;47.312;11.060;2022-12-18T00:26:28;19.57;;;12.63;;
10902;SDS011;5504;47.312;11.060;2022-12-18T00:28:58;22.60;;;13.80;;
10902;SDS011;5504;47.312;11.060;2022-12-18T00:31:25;23.97;;;14.83;;
10902;SDS011;5504;47.312;11.060;2022-12-18T00:33:51;25.97;;;15.07;;
10902;SDS011;5504;47.312;11.060;2022-12-18T00:36:20;24.13;;;14.40;;
10902;SDS011;5504;47.312;11.060;2022-12-18T00:38:50;22.00;;;13.60;;
10902;SDS011;5504;47.312;11.060;2022-12-18T00:41:16;20.43;;;13.43;;
10902;SDS011;5504;47.312;11.060;2022-12-18T00:44:03;21.93;;;14.13;;
10902;SDS011;5504;47.312;11.060;2022-12-18T00:46:31;21.40;;;13.10;;
10902;SDS011;5504;47.312;11.060;2022-12-18T00:48:57;24.03;;;14.13;;
10902;SDS011;5504;47.312;11.060;2022-12-18T00:51:23;22.93;;;13.87;;
10902;SDS011;5504;47.312;11.060;2022-12-18T00:53:49;21.90;;;13.37;;
10902;SDS011;5504;47.312;11.060;2022-12-18T00:56:15;21.53;;;13.20;;
10902;SDS011;5504;47.312;11.060;2022-12-18T00:58:41;21.37;;;13.40;;
10902;SDS011;5504;47.312;11.060;2022-12-18T01:01:07;22.83;;;13.30;;
10902;SDS011;5504;47.312;11.060;2022-12-18T01:03:33;24.27;;;13.87;;
10902;SDS011;5504;47.312;11.060;2022-12-18T01:05:59;20.93;;;12.40;;
10902;SDS011;5504;47.312;11.060;2022-12-18T01:08:30;20.83;;;12.73;;
10902;SDS011;5504;47.312;11.060;2022-12-18T01:10:55;20.40;;;12.90;;
10902;SDS011;5504;47.312;11.060;2022-12-18T01:13:21;21.17;;;13.23;;
10902;SDS011;5504;47.312;11.060;2022-12-18T01:15:50;21.20;;;12.60;;
10902;SDS011;5504;47.312;11.060;2022-12-18T01:18:16;20.50;;;12.60;;
10902;SDS011;5504;47.312;11.060;2022-12-18T01:20:42;18.37;;;12.03;;
10902;SDS011;5504;47.312;11.060;2022-12-18T01:23:07;19.20;;;11.90;;
10902;SDS011;5504;47.312;11.060;2022-12-18T01:25:35;20.90;;;12.10;;
10902;SDS011;5504;47.312;11.060;2022-12-18T01:28:01;19.67;;;12.07;;
10902;SDS011;5504;47.312;11.060;2022-12-18T01:30:27;19.30;;;11.90;;
10902;SDS011;5504;47.312;11.060;2022-12-18T01:32:53;19.00;;;10.87;;
10902;SDS011;5504;47.312;11.060;2022-12-18T01:35:19;18.10;;;11.37;;
10902;SDS011;5504;47.312;11.060;2022-12-18T01:37:44;18.13;;;11.30;;
10902;SDS011;5504;47.312;11.060;2022-12-18T01:40:10;17.10;;;10.33;;
10902;SDS011;5504;47.312;11.060;2022-12-18T01:42:36;18.27;;;10.97;;
10902;SDS011;5504;47.312;11.060;2022-12-18T01:47:44;17.60;;;10.90;;
10902;SDS011;5504;47.312;11.060;2022-12-18T01:50:22;16.87;;;10.93;;
10902;SDS011;5504;47.312;11.060;2022-12-18T01:52:56;18.33;;;11.10;;
10902;SDS011;5504;47.312;11.060;2022-12-18T01:55:29;17.10;;;10.53;;
10902;SDS011;5504;47.312;11.060;2022-12-18T01:57:58;15.53;;;10.03;;
10902;SDS011;5504;47.312;11.060;2022-12-18T02:00:25;17.30;;;10.17;;
10902;SDS011;5504;47.312;11.060;2022-12-18T02:02:53;16.00;;;10.43;;
10902;SDS011;5504;47.312;11.060;2022-12-18T02:14:16;17.70;;;9.70;;
10902;SDS011;5504;47.312;11.060;2022-12-18T02:16:52;15.63;;;9.27;;
10902;SDS011;5504;47.312;11.060;2022-12-18T02:27:32;15.73;;;8.90;;
10902;SDS011;5504;47.312;11.060;2022-12-18T02:30:00;15.10;;;8.30;;
10902;SDS011;5504;47.312;11.060;2022-12-18T02:32:30;13.50;;;8.23;;
10902;SDS011;5504;47.312;11.060;2022-12-18T02:34:59;14.27;;;8.93;;
10902;SDS011;5504;47.312;11.060;2022-12-18T02:37:29;13.87;;;8.33;;
10902;SDS011;5504;47.312;11.060;2022-12-18T02:39:57;14.17;;;8.33;;
10902;SDS011;5504;47.312;11.060;2022-12-18T02:42:24;14.33;;;8.23;;
10902;SDS011;5504;47.312;11.060;2022-12-18T02:44:52;13.47;;;8.00;;
10902;SDS011;5504;47.312;11.060;2022-12-18T02:47:19;14.00;;;7.87;;
10902;SDS011;5504;47.312;11.060;2022-12-18T02:50:05;13.30;;;8.50;;
10902;SDS011;5504;47.312;11.060;2022-12-18T02:52:43;13.17;;;7.67;;
10902;SDS011;5504;47.312;11.060;2022-12-18T02:55:40;14.83;;;8.20;;
10902;SDS011;5504;47.312;11.060;2022-12-18T03:01:01;12.17;;;7.97;;
10902;SDS011;5504;47.312;11.060;2022-12-18T03:03:35;14.13;;;7.87;;
10902;SDS011;5504;47.312;11.060;2022-12-18T03:08:48;12.43;;;7.40;;
10902;SDS011;5504;47.312;11.060;2022-12-18T03:11:18;12.67;;;7.63;;
10902;SDS011;5504;47.312;11.060;2022-12-18T03:14:04;12.03;;;6.90;;
10902;SDS011;5504;47.312;11.060;2022-12-18T03:16:34;11.43;;;6.90;;
10902;SDS011;5504;47.312;11.060;2022-12-18T03:19:05;12.27;;;7.07;;
10902;SDS011;5504;47.312;11.060;2022-12-18T03:21:56;13.20;;;7.47;;
10902;SDS011;5504;47.312;11.060;2022-12-18T03:24:22;14.03;;;7.67;;
10902;SDS011;5504;47.312;11.060;2022-12-18T03:26:51;12.43;;;7.10;;
10902;SDS011;5504;47.312;11.060;2022-12-18T03:29:27;11.93;;;6.87;;
10902;SDS011;5504;47.312;11.060;2022-12-18T03:32:07;12.67;;;6.73;;
10902;SDS011;5504;47.312;11.060;2022-12-18T03:34:36;10.70;;;6.73;;
10902;SDS011;5504;47.312;11.060;2022-12-18T03:37:05;11.77;;;6.77;;
10902;SDS011;5504;47.312;11.060;2022-12-18T03:39:32;12.67;;;7.27;;
10902;SDS011;5504;47.312;11.060;2022-12-18T03:42:08;13.47;;;7.37;;
10902;SDS011;5504;47.312;11.060;2022-12-18T03:52:27;11.63;;;7.00;;
10902;SDS011;5504;47.312;11.060;2022-12-18T03:55:12;11.40;;;6.90;;
10902;SDS011;5504;47.312;11.060;2022-12-18T03:57:38;13.10;;;7.87;;
10902;SDS011;5504;47.312;11.060;2022-12-18T04:00:09;13.30;;;7.30;;
10902;SDS011;5504;47.312;11.060;2022-12-18T04:02:37;12.90;;;7.23;;
10902;SDS011;5504;47.312;11.060;2022-12-18T04:05:07;13.13;;;7.70;;
10902;SDS011;5504;47.312;11.060;2022-12-18T04:07:35;13.30;;;7.10;;
10902;SDS011;5504;47.312;11.060;2022-12-18T04:10:02;11.93;;;7.20;;
10902;SDS011;5504;47.312;11.060;2022-12-18T04:12:31;11.27;;;6.47;;
10902;SDS011;5504;47.312;11.060;2022-12-18T04:14:56;12.50;;;7.00;;
10902;SDS011;5504;47.312;11.060;2022-12-18T04:17:22;11.43;;;7.07;;
10902;SDS011;5504;47.312;11.060;2022-12-18T04:19:48;11.47;;;7.07;;
10902;SDS011;5504;47.312;11.060;2022-12-18T04:22:14;11.83;;;7.30;;
10902;SDS011;5504;47.312;11.060;2022-12-18T04:24:40;11.10;;;6.73;;
10902;SDS011;5504;47.312;11.060;2022-12-18T04:27:06;11.63;;;7.10;;
10902;SDS011;5504;47.312;11.060;2022-12-18T04:29:31;11.83;;;6.87;;
10902;SDS011;5504;47.312;11.060;2022-12-18T04:31:57;10.03;;;6.30;;
10902;SDS011;5504;47.312;11.060;2022-12-18T04:34:23;10.63;;;6.30;;
10902;SDS011;5504;47.312;11.060;2022-12-18T04:36:48;11.53;;;7.20;;
10902;SDS011;5504;47.312;11.060;2022-12-18T04:39:17;12.10;;;7.33;;
10902;SDS011;5504;47.312;11.060;2022-12-18T04:41:43;12.87;;;6.70;;
10902;SDS011;5504;47.312;11.060;2022-12-18T04:44:08;11.33;;;6.83;;
10902;SDS011;5504;47.312;11.060;2022-12-18T04:46:34;11.03;;;6.40;;
10902;SDS011;5504;47.312;11.060;2022-12-18T04:49:00;10.77;;;6.03;;
10902;SDS011;5504;47.312;11.060;2022-12-18T04:51:26;11.80;;;6.40;;
10902;SDS011;5504;47.312;11.060;2022-12-18T04:53:51;10.37;;;6.60;;
10902;SDS011;5504;47.312;11.060;2022-12-18T04:56:17;11.87;;;6.97;;
10902;SDS011;5504;47.312;11.060;2022-12-18T04:58:43;15.70;;;7.57;;
10902;SDS011;5504;47.312;11.060;2022-12-18T05:01:10;13.33;;;7.30;;
10902;SDS011;5504;47.312;11.060;2022-12-18T05:03:37;13.53;;;7.30;;
10902;SDS011;5504;47.312;11.060;2022-12-18T05:06:03;12.03;;;6.30;;
10902;SDS011;5504;47.312;11.060;2022-12-18T05:08:30;12.43;;;7.00;;
10902;SDS011;5504;47.312;11.060;2022-12-18T05:11:14;11.87;;;6.70;;
10902;SDS011;5504;47.312;11.060;2022-12-18T05:13:43;9.23;;;5.80;;
10902;SDS011;5504;47.312;11.060;2022-12-18T05:16:10;10.10;;;6.00;;
10902;SDS011;5504;47.312;11.060;2022-12-18T05:18:37;11.57;;;6.40;;
10902;SDS011;5504;47.312;11.060;2022-12-18T05:21:03;11.00;;;6.13;;
10902;SDS011;5504;47.312;11.060;2022-12-18T05:23:29;11.47;;;6.30;;
10902;SDS011;5504;47.312;11.060;2022-12-18T05:25:56;12.70;;;6.10;;
10902;SDS011;5504;47.312;11.060;2022-12-18T05:28:24;12.43;;;6.13;;
10902;SDS011;5504;47.312;11.060;2022-12-18T05:30:52;11.83;;;6.33;;
10902;SDS011;5504;47.312;11.060;2022-12-18T05:33:19;9.50;;;5.97;;
10902;SDS011;5504;47.312;11.060;2022-12-18T05:35:53;11.77;;;6.30;;
10902;SDS011;5504;47.312;11.060;2022-12-18T05:38:20;10.37;;;6.30;;
10902;SDS011;5504;47.312;11.060;2022-12-18T05:40:47;10.73;;;5.80;;
10902;SDS011;5504;47.312;11.060;2022-12-18T05:43:14;11.50;;;5.77;;
10902;SDS011;5504;47.312;11.060;2022-12-18T05:45:41;9.13;;;5.53;;
10902;SDS011;5504;47.312;11.060;2022-12-18T05:48:07;9.80;;;5.77;;
10902;SDS011;5504;47.312;11.060;2022-12-18T05:50:37;9.67;;;5.77;;
10902;SDS011;5504;47.312;11.060;2022-12-18T05:53:04;10.97;;;6.03;;
10902;SDS011;5504;47.312;11.060;2022-12-18T05:55:36;10.33;;;5.90;;
10902;SDS011;5504;47.312;11.060;2022-12-18T05:58:03;10.87;;;5.83;;
10902;SDS011;5504;47.312;11.060;2022-12-18T06:00:30;10.37;;;6.03;;
10902;SDS011;5504;47.312;11.060;2022-12-18T06:02:57;11.10;;;6.07;;
10902;SDS011;5504;47.312;11.060;2022-12-18T06:05:24;8.87;;;5.70;;
10902;SDS011;5504;47.312;11.060;2022-12-18T06:07:50;9.87;;;5.57;;
10902;SDS011;5504;47.312;11.060;2022-12-18T06:10:16;11.17;;;5.93;;
10902;SDS011;5504;47.312;11.060;2022-12-18T06:12:42;9.60;;;5.93;;
10902;SDS011;5504;47.312;11.060;2022-12-18T06:15:08;9.67;;;5.43;;
10902;SDS011;5504;47.312;11.060;2022-12-18T06:17:34;9.00;;;5.10;;
10902;SDS011;5504;47.312;11.060;2022-12-18T06:20:00;10.27;;;5.50;;
10902;SDS011;5504;47.312;11.060;2022-12-18T06:22:26;9.97;;;5.27;;
10902;SDS011;5504;47.312;11.060;2022-12-18T06:24:52;9.40;;;4.73;;
10902;SDS011;5504;47.312;11.060;2022-12-18T06:27:18;7.90;;;5.07;;
10902;SDS011;5504;47.312;11.060;2022-12-18T06:29:44;8.40;;;4.73;;
10902;SDS011;5504;47.312;11.060;2022-12-18T06:32:10;9.63;;;5.40;;
10902;SDS011;5504;47.312;11.060;2022-12-18T06:34:39;9.60;;;5.77;;
10902;SDS011;5504;47.312;11.060;2022-12-18T06:37:04;8.20;;;4.93;;
10902;SDS011;5504;47.312;11.060;2022-12-18T06:39:30;8.60;;;4.80;;
10902;SDS011;5504;47.312;11.060;2022-12-18T06:41:56;8.37;;;5.03;;
10902;SDS011;5504;47.312;11.060;2022-12-18T06:44:21;8.87;;;4.90;;
10902;SDS011;5504;47.312;11.060;2022-12-18T06:46:47;8.93;;;4.70;;
10902;SDS011;5504;47.312;11.060;2022-12-18T06:49:13;8.23;;;4.90;;
10902;SDS011;5504;47.312;11.060;2022-12-18T06:51:38;21.80;;;5.30;;
10902;SDS011;5504;47.312;11.060;2022-12-18T06:54:04;9.03;;;5.13;;
10902;SDS011;5504;47.312;11.060;2022-12-18T06:56:30;9.63;;;5.00;;
10902;SDS011;5504;47.312;11.060;2022-12-18T06:58:56;6.83;;;3.83;;
10902;SDS011;5504;47.312;11.060;2022-12-18T07:01:21;9.00;;;4.80;;
10902;SDS011;5504;47.312;11.060;2022-12-18T07:03:51;7.50;;;4.70;;
10902;SDS011;5504;47.312;11.060;2022-12-18T07:06:21;8.63;;;4.50;;
10902;SDS011;5504;47.312;11.060;2022-12-18T07:08:49;8.03;;;4.67;;
10902;SDS011;5504;47.312;11.060;2022-12-18T07:11:15;7.33;;;4.10;;
10902;SDS011;5504;47.312;11.060;2022-12-18T07:13:42;7.70;;;4.40;;
10902;SDS011;5504;47.312;11.060;2022-12-18T07:16:09;10.87;;;5.33;;
10902;SDS011;5504;47.312;11.060;2022-12-18T07:18:43;8.27;;;4.63;;
10902;SDS011;5504;47.312;11.060;2022-12-18T07:21:10;7.43;;;4.50;;
10902;SDS011;5504;47.312;11.060;2022-12-18T07:23:38;7.27;;;4.50;;
10902;SDS011;5504;47.312;11.060;2022-12-18T07:26:05;7.97;;;4.37;;
10902;SDS011;5504;47.312;11.060;2022-12-18T07:28:32;8.00;;;4.27;;
10902;SDS011;5504;47.312;11.060;2022-12-18T07:31:03;8.63;;;4.67;;
10902;SDS011;5504;47.312;11.060;2022-12-18T07:33:33;6.27;;;4.00;;
10902;SDS011;5504;47.312;11.060;2022-12-18T07:35:59;8.13;;;4.00;;
10902;SDS011;5504;47.312;11.060;2022-12-18T07:38:26;7.07;;;3.80;;
10902;SDS011;5504;47.312;11.060;2022-12-18T07:40:52;8.30;;;4.60;;
10902;SDS011;5504;47.312;11.060;2022-12-18T07:43:17;11.07;;;5.50;;
10902;SDS011;5504;47.312;11.060;2022-12-18T07:45:43;7.90;;;4.73;;
10902;SDS011;5504;47.312;11.060;2022-12-18T07:48:09;9.80;;;4.80;;
10902;SDS011;5504;47.312;11.060;2022-12-18T07:50:35;8.07;;;4.10;;
10902;SDS011;5504;47.312;11.060;2022-12-18T07:53:01;9.50;;;4.07;;
10902;SDS011;5504;47.312;11.060;2022-12-18T07:55:29;7.27;;;3.90;;
10902;SDS011;5504;47.312;11.060;2022-12-18T07:57:55;7.00;;;5.30;;
10902;SDS011;5504;47.312;11.060;2022-12-18T08:00:21;6.23;;;3.83;;
10902;SDS011;5504;47.312;11.060;2022-12-18T08:02:47;9.23;;;4.00;;
10902;SDS011;5504;47.312;11.060;2022-12-18T08:05:13;7.50;;;3.80;;
10902;SDS011;5504;47.312;11.060;2022-12-18T08:07:38;7.07;;;3.90;;
10902;SDS011;5504;47.312;11.060;2022-12-18T08:10:04;7.13;;;3.70;;
10902;SDS011;5504;47.312;11.060;2022-12-18T08:12:31;8.03;;;3.83;;
10902;SDS011;5504;47.312;11.060;2022-12-18T08:14:57;7.13;;;4.27;;
10902;SDS011;5504;47.312;11.060;2022-12-18T08:17:22;5.97;;;3.70;;
10902;SDS011;5504;47.312;11.060;2022-12-18T08:19:48;5.90;;;3.30;;
10902;SDS011;5504;47.312;11.060;2022-12-18T08:22:14;7.13;;;4.37;;
10902;SDS011;5504;47.312;11.060;2022-12-18T08:24:39;5.47;;;3.53;;
10902;SDS011;5504;47.312;11.060;2022-12-18T08:27:05;5.87;;;3.83;;
10902;SDS011;5504;47.312;11.060;2022-12-18T08:29:31;7.30;;;4.40;;
10902;SDS011;5504;47.312;11.060;2022-12-18T08:31:57;7.00;;;4.20;;
10902;SDS011;5504;47.312;11.060;2022-12-18T08:34:22;7.33;;;4.20;;
10902;SDS011;5504;47.312;11.060;2022-12-18T08:36:48;7.97;;;4.03;;
10902;SDS011;5504;47.312;11.060;2022-12-18T08:39:14;5.93;;;3.83;;
10902;SDS011;5504;47.312;11.060;2022-12-18T08:41:40;8.03;;;4.33;;
10902;SDS011;5504;47.312;11.060;2022-12-18T08:44:07;6.90;;;4.03;;
10902;SDS011;5504;47.312;11.060;2022-12-18T08:46:51;9.17;;;4.30;;
10902;SDS011;5504;47.312;11.060;2022-12-18T08:49:17;8.70;;;4.77;;
10902;SDS011;5504;47.312;11.060;2022-12-18T08:51:44;6.57;;;4.70;;
10902;SDS011;5504;47.312;11.060;2022-12-18T08:54:11;7.87;;;4.37;;
10902;SDS011;5504;47.312;11.060;2022-12-18T08:56:38;7.27;;;4.10;;
10902;SDS011;5504;47.312;11.060;2022-12-18T08:59:04;6.80;;;4.13;;
10902;SDS011;5504;47.312;11.060;2022-12-18T09:01:29;6.27;;;4.20;;
10902;SDS011;5504;47.312;11.060;2022-12-18T09:03:55;5.90;;;4.20;;
10902;SDS011;5504;47.312;11.060;2022-12-18T09:06:21;7.40;;;4.40;;
10902;SDS011;5504;47.312;11.060;2022-12-18T09:08:48;7.57;;;4.70;;
10902;SDS011;5504;47.312;11.060;2022-12-18T09:11:15;8.97;;;4.93;;
10902;SDS011;5504;47.312;11.060;2022-12-18T09:13:46;6.63;;;4.50;;
10902;SDS011;5504;47.312;11.060;2022-12-18T09:16:12;7.70;;;5.00;;
10902;SDS011;5504;47.312;11.060;2022-12-18T09:18:37;6.67;;;4.50;;
10902;SDS011;5504;47.312;11.060;2022-12-18T09:21:36;7.50;;;4.90;;
10902;SDS011;5504;47.312;11.060;2022-12-18T09:23:57;8.07;;;4.60;;
10902;SDS011;5504;47.312;11.060;2022-12-18T09:29:44;5.93;;;3.90;;
10902;SDS011;5504;47.312;11.060;2022-12-18T09:32:10;6.83;;;3.97;;
10902;SDS011;5504;47.312;11.060;2022-12-18T09:34:35;5.20;;;3.67;;
10902;SDS011;5504;47.312;11.060;2022-12-18T09:37:01;6.17;;;4.07;;
10902;SDS011;5504;47.312;11.060;2022-12-18T09:39:27;5.13;;;4.00;;
10902;SDS011;5504;47.312;11.060;2022-12-18T09:41:56;5.77;;;4.03;;
10902;SDS011;5504;47.312;11.060;2022-12-18T09:44:30;5.77;;;3.77;;
10902;SDS011;5504;47.312;11.060;2022-12-18T09:47:05;5.80;;;4.10;;
10902;SDS011;5504;47.312;11.060;2022-12-18T09:49:46;6.00;;;3.70;;
10902;SDS011;5504;47.312;11.060;2022-12-18T09:52:16;5.83;;;4.07;;
10902;SDS011;5504;47.312;11.060;2022-12-18T09:55:05;5.83;;;3.70;;
10902;SDS011;5504;47.312;11.060;2022-12-18T09:57:35;4.70;;;3.77;;
10902;SDS011;5504;47.312;11.060;2022-12-18T10:00:13;5.77;;;3.53;;
10902;SDS011;5504;47.312;11.060;2022-12-18T10:02:44;5.47;;;3.60;;
10902;SDS011;5504;47.312;11.060;2022-12-18T10:05:19;5.23;;;3.17;;
10902;SDS011;5504;47.312;11.060;2022-12-18T10:08:02;4.03;;;3.30;;
10902;SDS011;5504;47.312;11.060;2022-12-18T10:21:03;3.80;;;2.80;;
10902;SDS011;5504;47.312;11.060;2022-12-18T10:26:27;4.73;;;3.17;;
10902;SDS011;5504;47.312;11.060;2022-12-18T10:28:53;4.37;;;3.13;;
10902;SDS011;5504;47.312;11.060;2022-12-18T10:31:22;4.33;;;3.50;;
10902;SDS011;5504;47.312;11.060;2022-12-18T10:33:49;5.40;;;3.70;;
10902;SDS011;5504;47.312;11.060;2022-12-18T10:36:14;4.63;;;3.67;;
10902;SDS011;5504;47.312;11.060;2022-12-18T10:38:40;4.10;;;3.57;;
10902;SDS011;5504;47.312;11.060;2022-12-18T10:46:35;11.73;;;6.70;;
10902;SDS011;5504;47.312;11.060;2022-12-18T10:49:01;7.33;;;4.50;;
10902;SDS011;5504;47.312;11.060;2022-12-18T10:51:29;5.67;;;4.17;;
10902;SDS011;5504;47.312;11.060;2022-12-18T10:54:02;5.00;;;4.00;;
10902;SDS011;5504;47.312;11.060;2022-12-18T10:56:39;5.43;;;4.10;;
10902;SDS011;5504;47.312;11.060;2022-12-18T10:59:09;5.60;;;3.20;;
10902;SDS011;5504;47.312;11.060;2022-12-18T11:01:52;3.83;;;3.23;;
10902;SDS011;5504;47.312;11.060;2022-12-18T11:04:30;4.53;;;3.60;;
10902;SDS011;5504;47.312;11.060;2022-12-18T11:06:58;6.07;;;4.87;;
10902;SDS011;5504;47.312;11.060;2022-12-18T11:09:29;4.90;;;3.77;;
10902;SDS011;5504;47.312;11.060;2022-12-18T11:12:03;5.30;;;4.47;;
10902;SDS011;5504;47.312;11.060;2022-12-18T11:14:42;4.50;;;3.90;;
10902;SDS011;5504;47.312;11.060;2022-12-18T11:17:22;5.63;;;4.60;;
10902;SDS011;5504;47.312;11.060;2022-12-18T11:19:55;5.47;;;4.43;;
10902;SDS011;5504;47.312;11.060;2022-12-18T11:24:56;6.07;;;4.80;;
10902;SDS011;5504;47.312;11.060;2022-12-18T11:27:30;5.43;;;4.93;;
10902;SDS011;5504;47.312;11.060;2022-12-18T11:32:49;5.30;;;4.37;;
10902;SDS011;5504;47.312;11.060;2022-12-18T11:37:54;5.10;;;4.60;;
10902;SDS011;5504;47.312;11.060;2022-12-18T11:40:27;6.87;;;5.63;;
10902;SDS011;5504;47.312;11.060;2022-12-18T11:43:02;5.17;;;4.67;;
10902;SDS011;5504;47.312;11.060;2022-12-18T11:45:45;6.97;;;4.83;;
10902;SDS011;5504;47.312;11.060;2022-12-18T11:48:34;4.97;;;3.77;;
10902;SDS011;5504;47.312;11.060;2022-12-18T11:51:11;4.17;;;3.50;;
10902;SDS011;5504;47.312;11.060;2022-12-18T11:53:44;4.70;;;4.20;;
10902;SDS011;5504;47.312;11.060;2022-12-18T11:56:26;4.87;;;4.10;;
10902;SDS011;5504;47.312;11.060;2022-12-18T12:01:51;5.30;;;4.60;;
10902;SDS011;5504;47.312;11.060;2022-12-18T12:06:59;9.70;;;7.17;;
10902;SDS011;5504;47.312;11.060;2022-12-18T12:20:20;9.00;;;7.10;;
10902;SDS011;5504;47.312;11.060;2022-12-18T12:39:16;5.90;;;4.83;;
10902;SDS011;5504;47.312;11.060;2022-12-18T12:41:46;6.93;;;5.27;;
10902;SDS011;5504;47.312;11.060;2022-12-18T12:44:31;6.70;;;4.70;;
10902;SDS011;5504;47.312;11.060;2022-12-18T12:47:09;6.17;;;5.00;;
10902;SDS011;5504;47.312;11.060;2022-12-18T12:49:41;7.10;;;5.17;;
10902;SDS011;5504;47.312;11.060;2022-12-18T12:52:14;7.73;;;5.70;;
10902;SDS011;5504;47.312;11.060;2022-12-18T12:55:11;6.90;;;5.43;;
10902;SDS011;5504;47.312;11.060;2022-12-18T13:00:34;5.20;;;4.30;;
10902;SDS011;5504;47.312;11.060;2022-12-18T13:03:22;5.87;;;3.90;;
10902;SDS011;5504;47.312;11.060;2022-12-18T13:05:54;5.83;;;4.00;;
10902;SDS011;5504;47.312;11.060;2022-12-18T13:10:52;6.20;;;5.13;;
10902;SDS011;5504;47.312;11.060;2022-12-18T13:13:49;6.03;;;4.73;;
10902;SDS011;5504;47.312;11.060;2022-12-18T13:16:23;5.03;;;4.07;;
10902;SDS011;5504;47.312;11.060;2022-12-18T13:18:51;5.20;;;4.30;;
10902;SDS011;5504;47.312;11.060;2022-12-18T13:21:29;5.57;;;4.53;;
10902;SDS011;5504;47.312;11.060;2022-12-18T13:23:57;5.40;;;4.17;;
10902;SDS011;5504;47.312;11.060;2022-12-18T13:26:40;5.10;;;4.30;;
10902;SDS011;5504;47.312;11.060;2022-12-18T13:29:06;5.60;;;3.90;;
10902;SDS011;5504;47.312;11.060;2022-12-18T13:36:43;4.47;;;3.73;;
10902;SDS011;5504;47.312;11.060;2022-12-18T13:41:48;5.87;;;4.70;;
10902;SDS011;5504;47.312;11.060;2022-12-18T13:44:57;5.93;;;4.23;;
10902;SDS011;5504;47.312;11.060;2022-12-18T13:47:41;4.87;;;4.00;;
10902;SDS011;5504;47.312;11.060;2022-12-18T13:50:09;5.23;;;3.80;;
10902;SDS011;5504;47.312;11.060;2022-12-18T13:52:47;6.00;;;3.90;;
10902;SDS011;5504;47.312;11.060;2022-12-18T13:55:16;5.23;;;3.90;;
10902;SDS011;5504;47.312;11.060;2022-12-18T13:57:44;4.60;;;3.70;;
10902;SDS011;5504;47.312;11.060;2022-12-18T14:02:53;4.70;;;3.90;;
10902;SDS011;5504;47.312;11.060;2022-12-18T14:05:31;4.73;;;4.00;;
10902;SDS011;5504;47.312;11.060;2022-12-18T14:08:08;9.60;;;6.90;;
10902;SDS011;5504;47.312;11.060;2022-12-18T14:10:44;6.63;;;5.20;;
10902;SDS011;5504;47.312;11.060;2022-12-18T14:13:15;5.43;;;3.90;;
10902;SDS011;5504;47.312;11.060;2022-12-18T14:16:05;5.53;;;3.23;;
10902;SDS011;5504;47.312;11.060;2022-12-18T14:21:21;6.37;;;3.20;;
10902;SDS011;5504;47.312;11.060;2022-12-18T14:26:32;5.50;;;3.70;;
10902;SDS011;5504;47.312;11.060;2022-12-18T14:28:59;4.60;;;3.67;;
10902;SDS011;5504;47.312;11.060;2022-12-18T14:31:43;5.37;;;3.50;;
10902;SDS011;5504;47.312;11.060;2022-12-18T14:34:16;4.27;;;3.17;;
10902;SDS011;5504;47.312;11.060;2022-12-18T14:36:42;4.50;;;3.33;;
10902;SDS011;5504;47.312;11.060;2022-12-18T14:39:18;5.33;;;3.73;;
10902;SDS011;5504;47.312;11.060;2022-12-18T14:41:43;4.10;;;3.33;;
10902;SDS011;5504;47.312;11.060;2022-12-18T14:44:11;5.07;;;3.43;;
10902;SDS011;5504;47.312;11.060;2022-12-18T14:46:38;4.97;;;3.30;;
10902;SDS011;5504;47.312;11.060;2022-12-18T14:49:26;4.57;;;3.70;;
10902;SDS011;5504;47.312;11.060;2022-12-18T14:52:03;5.97;;;3.90;;
10902;SDS011;5504;47.312;11.060;2022-12-18T14:54:30;5.27;;;4.10;;
10902;SDS011;5504;47.312;11.060;2022-12-18T14:57:04;7.10;;;5.30;;
10902;SDS011;5504;47.312;11.060;2022-12-18T14:59:47;5.43;;;4.03;;
10902;SDS011;5504;47.312;11.060;2022-12-18T15:02:21;5.77;;;4.37;;
10902;SDS011;5504;47.312;11.060;2022-12-18T15:04:59;6.40;;;4.63;;
10902;SDS011;5504;47.312;11.060;2022-12-18T15:07:38;7.53;;;4.63;;
10902;SDS011;5504;47.312;11.060;2022-12-18T15:12:45;6.40;;;5.33;;
10902;SDS011;5504;47.312;11.060;2022-12-18T15:20:41;7.97;;;5.07;;
10902;SDS011;5504;47.312;11.060;2022-12-18T15:25:44;8.27;;;5.40;;
10902;SDS011;5504;47.312;11.060;2022-12-18T15:28:19;8.73;;;5.07;;
10902;SDS011;5504;47.312;11.060;2022-12-18T15:31:00;9.53;;;5.57;;
10902;SDS011;5504;47.312;11.060;2022-12-18T15:33:39;10.67;;;7.53;;
10902;SDS011;5504;47.312;11.060;2022-12-18T15:36:10;13.37;;;8.07;;
10902;SDS011;5504;47.312;11.060;2022-12-18T15:38:37;19.93;;;14.50;;
10902;SDS011;5504;47.312;11.060;2022-12-18T15:41:03;17.23;;;10.17;;
10902;SDS011;5504;47.312;11.060;2022-12-18T15:43:29;12.83;;;7.73;;
10902;SDS011;5504;47.312;11.060;2022-12-18T15:48:32;16.77;;;10.30;;
10902;SDS011;5504;47.312;11.060;2022-12-18T15:50:59;12.67;;;8.97;;
10902;SDS011;5504;47.312;11.060;2022-12-18T15:53:27;14.13;;;9.13;;
10902;SDS011;5504;47.312;11.060;2022-12-18T15:55:56;13.17;;;8.13;;
10902;SDS011;5504;47.312;11.060;2022-12-18T15:58:41;13.90;;;8.47;;
10902;SDS011;5504;47.312;11.060;2022-12-18T16:01:07;13.60;;;7.67;;
10902;SDS011;5504;47.312;11.060;2022-12-18T16:03:34;10.97;;;7.27;;
10902;SDS011;5504;47.312;11.060;2022-12-18T16:06:00;11.70;;;7.50;;
10902;SDS011;5504;47.312;11.060;2022-12-18T16:08:27;11.63;;;7.50;;
10902;SDS011;5504;47.312;11.060;2022-12-18T16:10:54;12.13;;;7.77;;
10902;SDS011;5504;47.312;11.060;2022-12-18T16:13:21;11.37;;;7.83;;
10902;SDS011;5504;47.312;11.060;2022-12-18T16:15:46;11.70;;;8.10;;
10902;SDS011;5504;47.312;11.060;2022-12-18T16:18:12;11.90;;;8.17;;
10902;SDS011;5504;47.312;11.060;2022-12-18T16:20:38;11.50;;;8.00;;
10902;SDS011;5504;47.312;11.060;2022-12-18T16:23:04;12.30;;;8.20;;
10902;SDS011;5504;47.312;11.060;2022-12-18T16:25:30;23.30;;;14.93;;
10902;SDS011;5504;47.312;11.060;2022-12-18T16:27:56;15.20;;;10.70;;
10902;SDS011;5504;47.312;11.060;2022-12-18T16:30:23;13.37;;;9.70;;
10902;SDS011;5504;47.312;11.060;2022-12-18T16:32:52;13.13;;;8.70;;
10902;SDS011;5504;47.312;11.060;2022-12-18T16:35:19;11.87;;;8.17;;
10902;SDS011;5504;47.312;11.060;2022-12-18T16:37:45;12.33;;;8.40;;
10902;SDS011;5504;47.312;11.060;2022-12-18T16:40:12;15.73;;;9.67;;
10902;SDS011;5504;47.312;11.060;2022-12-18T16:42:39;14.40;;;9.03;;
10902;SDS011;5504;47.312;11.060;2022-12-18T16:45:07;14.23;;;8.77;;
10902;SDS011;5504;47.312;11.060;2022-12-18T16:47:34;11.43;;;8.60;;
10902;SDS011;5504;47.312;11.060;2022-12-18T16:49:59;13.13;;;8.87;;
10902;SDS011;5504;47.312;11.060;2022-12-18T16:52:25;13.30;;;9.53;;
10902;SDS011;5504;47.312;11.060;2022-12-18T16:54:52;13.70;;;9.47;;
10902;SDS011;5504;47.312;11.060;2022-12-18T16:57:18;14.37;;;10.20;;
10902;SDS011;5504;47.312;11.060;2022-12-18T16:59:45;13.70;;;9.20;;
10902;SDS011;5504;47.312;11.060;2022-12-18T17:02:18;14.00;;;10.07;;
10902;SDS011;5504;47.312;11.060;2022-12-18T17:04:46;15.60;;;10.90;;